Time;durP1;ratioP1;P1;durP2;ratioP2;P2;SDS_P1;SDS_P2;PMS_P1;PMS_P2;Temp;Humidity;BMP_temperature;BMP_pressure;BME280_temperature;BME280_humidity;BME280_pressure;Samples;Min_cycle;Max_cycle;Signal;HPM_P1;HPM_P2
2022/05/12 00:00:30;;;;;;;13.00;5.38;;;;;;;16.09;86.68;100604.84;4938646;29;20130;-78
2022/05/12 00:02:57;;;;;;;14.32;6.60;;;;;;;16.08;85.50;100597.94;4939272;29;20414;-79
2022/05/12 00:05:24;;;;;;;16.25;7.68;;;;;;;16.10;85.66;100590.66;4938489;29;20066;-78
2022/05/12 00:07:51;;;;;;;10.77;6.80;;;;;;;16.08;86.79;100600.59;4939737;29;20439;-77
2022/05/12 00:10:20;;;;;;;14.05;7.18;;;;;;;16.05;86.49;100603.63;4940948;29;20052;-78
2022/05/12 00:12:48;;;;;;;14.80;6.22;;;;;;;16.09;86.86;100602.22;4941429;29;20083;-79
2022/05/12 00:15:18;;;;;;;9.15;5.53;;;;;;;16.00;86.19;100607.88;4943098;29;20142;-78
2022/05/12 00:17:46;;;;;;;8.77;5.00;;;;;;;15.97;86.02;100605.59;4954663;29;20076;-78
2022/05/12 00:20:14;;;;;;;9.00;4.70;;;;;;;15.88;85.55;100602.28;4954203;29;20075;-78
2022/05/12 00:22:41;;;;;;;9.65;4.60;;;;;;;15.91;85.99;100608.00;4954525;29;20074;-79
2022/05/12 00:25:12;;;;;;;8.88;4.78;;;;;;;15.90;86.31;100610.81;4947671;29;20115;-80
2022/05/12 00:27:38;;;;;;;10.55;4.93;;;;;;;15.75;86.38;100618.81;4940398;29;20122;-79
2022/05/12 00:30:09;;;;;;;9.68;4.28;;;;;;;15.72;86.87;100626.28;4940155;29;20574;-79
2022/05/12 00:32:36;;;;;;;7.18;4.43;;;;;;;15.69;86.32;100624.03;4939401;29;20055;-78
2022/05/12 00:35:04;;;;;;;8.25;4.72;;;;;;;15.70;86.80;100630.94;4938946;29;20489;-79
2022/05/12 00:37:31;;;;;;;8.30;4.60;;;;;;;15.68;86.33;100631.13;4938333;29;20082;-80
2022/05/12 00:39:58;;;;;;;10.85;4.43;;;;;;;15.68;86.57;100648.78;4938682;29;20292;-79
2022/05/12 00:42:24;;;;;;;8.52;4.78;;;;;;;15.70;86.60;100641.50;4938306;29;20051;-78
2022/05/12 00:44:51;;;;;;;10.65;4.88;;;;;;;15.77;86.04;100637.09;4939443;29;20052;-78
2022/05/12 00:47:18;;;;;;;6.43;4.22;;;;;;;15.73;85.62;100641.13;4939096;29;20058;-79
2022/05/12 00:49:47;;;;;;;8.55;4.28;;;;;;;15.72;85.26;100645.56;4937881;29;20229;-79
2022/05/12 00:52:19;;;;;;;9.77;4.22;;;;;;;15.64;85.24;100647.53;4938927;29;20119;-79
2022/05/12 00:54:50;;;;;;;5.30;4.00;;;;;;;15.66;85.25;100648.16;4938671;29;20184;-79
2022/05/12 00:57:21;;;;;;;8.70;4.25;;;;;;;15.62;85.37;100652.97;4938517;29;20074;-79
2022/05/12 00:59:48;;;;;;;8.27;4.30;;;;;;;15.73;84.48;100657.75;4938750;29;20515;-80
2022/05/12 01:02:17;;;;;;;6.55;4.10;;;;;;;15.72;84.40;100660.59;4937893;29;20051;-79
2022/05/12 01:04:46;;;;;;;8.30;4.00;;;;;;;15.68;83.90;100665.41;4939216;29;20051;-78
2022/05/12 01:07:13;;;;;;;7.55;4.18;;;;;;;15.66;83.90;100656.88;4939376;29;20136;-79
2022/05/12 01:09:41;;;;;;;9.38;3.88;;;;;;;15.68;84.71;100675.97;4942734;29;20047;-80
2022/05/12 01:12:09;;;;;;;8.43;4.22;;;;;;;15.55;84.88;100676.66;4941852;29;20051;-79
2022/05/12 01:14:36;;;;;;;8.38;4.72;;;;;;;15.52;85.35;100681.47;4940382;29;20421;-80
2022/05/12 01:17:04;;;;;;;11.82;5.35;;;;;;;15.56;85.31;100682.75;4938358;29;20475;-79
2022/05/12 01:19:34;;;;;;;7.75;5.07;;;;;;;15.41;84.60;100685.41;4938247;29;20510;-79
2022/05/12 01:22:02;;;;;;;12.57;5.15;;;;;;;15.38;84.71;100695.50;4937041;29;20052;-79
2022/05/12 01:24:35;;;;;;;9.57;5.90;;;;;;;15.48;84.36;100698.66;4937599;29;20055;-78
2022/05/12 01:27:18;;;;;;;8.05;5.10;;;;;;;15.45;84.54;100704.31;4938599;29;20060;-80
2022/05/12 01:29:45;;;;;;;11.73;5.25;;;;;;;15.46;83.41;100700.69;4937387;29;20051;-78
2022/05/12 01:32:12;;;;;;;12.57;5.90;;;;;;;15.48;82.82;100706.59;4936977;29;20058;-78
2022/05/12 01:34:38;;;;;;;9.75;5.45;;;;;;;15.38;82.15;100706.88;4937735;29;20054;-78
2022/05/12 01:37:05;;;;;;;13.65;5.90;;;;;;;15.27;82.27;100716.06;4938219;29;20086;-78
2022/05/12 01:39:35;;;;;;;10.82;6.05;;;;;;;15.30;82.60;100714.88;4938928;29;20081;-79
2022/05/12 01:42:02;;;;;;;15.00;6.35;;;;;;;15.27;82.34;100733.72;4939789;29;20159;-80
2022/05/12 01:44:29;;;;;;;8.75;6.30;;;;;;;15.25;82.08;100735.72;4938871;29;20082;-79
2022/05/12 01:46:56;;;;;;;10.85;5.97;;;;;;;15.30;81.63;100724.63;4938387;29;20138;-79
2022/05/12 01:49:23;;;;;;;12.32;5.90;;;;;;;15.25;81.28;100743.63;4939397;29;20471;-80
2022/05/12 01:51:52;;;;;;;13.43;6.38;;;;;;;15.25;81.11;100739.16;4940177;29;20052;-79
2022/05/12 01:54:19;;;;;;;10.73;6.20;;;;;;;15.13;81.19;100739.81;4938395;29;20111;-79
2022/05/12 01:56:47;;;;;;;11.52;5.88;;;;;;;15.06;81.60;100738.94;4936634;29;20514;-78
2022/05/12 01:59:14;;;;;;;11.48;6.07;;;;;;;14.96;82.28;100743.66;4934412;29;20131;-78
2022/05/12 02:01:41;;;;;;;11.55;6.05;;;;;;;14.92;82.16;100744.00;4936819;29;20142;-78
2022/05/12 02:04:07;;;;;;;12.05;6.68;;;;;;;14.88;81.82;100757.72;4936373;29;20087;-79
2022/05/12 02:06:34;;;;;;;13.73;6.55;;;;;;;14.80;81.53;100760.44;4939447;29;20138;-79
2022/05/12 02:09:01;;;;;;;11.35;6.63;;;;;;;14.73;82.03;100760.34;4940910;29;20550;-79
2022/05/12 02:11:28;;;;;;;14.38;7.35;;;;;;;14.53;82.63;100764.50;4937753;29;20497;-78
2022/05/12 02:13:56;;;;;;;11.73;6.97;;;;;;;14.42;83.20;100773.63;4937040;29;20075;-78
2022/05/12 02:16:25;;;;;;;11.75;6.78;;;;;;;14.27;83.10;100786.69;4938687;29;20083;-78
2022/05/12 02:18:51;;;;;;;12.07;7.10;;;;;;;14.18;83.74;100787.75;4937007;29;20048;-78
2022/05/12 02:21:18;;;;;;;11.57;7.32;;;;;;;14.13;84.09;100784.84;4937753;29;20146;-78
2022/05/12 02:23:45;;;;;;;15.43;7.78;;;;;;;14.07;84.12;100784.72;4939519;29;20174;-78
2022/05/12 02:26:11;;;;;;;13.98;8.13;;;;;;;14.00;83.83;100789.06;4940272;29;20135;-78
2022/05/12 02:28:38;;;;;;;16.63;8.30;;;;;;;13.89;84.03;100790.25;4937247;29;20135;-79
2022/05/12 02:31:06;;;;;;;10.85;7.25;;;;;;;13.87;83.70;100805.41;4938039;29;20134;-78
2022/05/12 02:33:33;;;;;;;12.95;7.40;;;;;;;13.80;83.87;100801.81;4937238;29;20094;-79
2022/05/12 02:36:02;;;;;;;12.20;7.65;;;;;;;13.77;84.09;100804.78;4936963;29;20052;-78
2022/05/12 02:38:29;;;;;;;14.20;7.50;;;;;;;13.74;84.43;100810.38;4936761;29;20075;-78
2022/05/12 02:40:56;;;;;;;13.82;7.78;;;;;;;13.67;84.41;100822.63;4938232;29;20466;-79
2022/05/12 02:43:25;;;;;;;17.08;8.40;;;;;;;13.65;84.56;100828.03;4943500;29;20112;-78
2022/05/12 02:45:54;;;;;;;13.05;7.72;;;;;;;13.63;84.60;100829.19;4944642;29;20059;-80
2022/05/12 02:48:25;;;;;;;13.20;7.60;;;;;;;13.54;84.79;100831.84;4937160;29;20124;-80
2022/05/12 02:50:52;;;;;;;10.35;7.15;;;;;;;13.47;85.27;100830.91;4951596;29;20079;-79
2022/05/12 02:53:18;;;;;;;11.77;7.88;;;;;;;13.44;85.19;100841.75;4951824;29;20168;-79
2022/05/12 02:55:45;;;;;;;11.75;7.43;;;;;;;13.36;85.43;100833.06;4939444;29;20107;-79
2022/05/12 02:58:12;;;;;;;14.93;8.10;;;;;;;13.30;85.35;100831.94;4938046;29;20056;-79
2022/05/12 03:00:39;;;;;;;13.75;8.23;;;;;;;13.32;85.57;100850.97;4938869;29;20111;-79
2022/05/12 03:03:07;;;;;;;11.63;7.65;;;;;;;13.19;86.05;100838.38;4938726;29;20052;-80
2022/05/12 03:09:17;;;;;;;15.40;8.63;;;;;;;13.03;86.04;100837.56;4951821;28;20066;-80
2022/05/12 03:11:58;;;;;;;13.25;8.77;;;;;;;12.90;86.89;100854.63;4957302;29;20058;-81
2022/05/12 03:18:36;;;;;;;13.93;8.67;;;;;;;12.86;86.58;100848.06;4936102;29;20466;-81
2022/05/12 03:25:17;;;;;;;12.45;8.63;;;;;;;12.69;87.64;100854.34;4934695;29;20067;-81
2022/05/12 03:27:47;;;;;;;11.10;8.50;;;;;;;12.69;88.02;100877.16;4917374;29;20051;-82
2022/05/12 03:30:18;;;;;;;13.43;8.70;;;;;;;12.56;87.97;100861.88;4938756;29;20079;-80
2022/05/12 03:33:05;;;;;;;13.27;8.98;;;;;;;12.59;87.95;100878.13;4940916;29;20083;-81
2022/05/12 03:35:33;;;;;;;16.90;9.18;;;;;;;12.50;87.91;100868.59;4941614;29;20079;-81
2022/05/12 03:38:01;;;;;;;14.15;9.40;;;;;;;12.66;87.41;100883.53;4939182;29;20186;-80
2022/05/12 03:40:27;;;;;;;15.02;8.77;;;;;;;12.53;87.84;100898.94;4940119;29;20056;-81
2022/05/12 03:42:58;;;;;;;12.40;8.75;;;;;;;12.50;87.64;100888.78;4939941;29;20058;-80
2022/05/12 03:45:23;;;;;;;13.82;9.10;;;;;;;12.44;87.80;100899.91;4939232;29;20052;-80
2022/05/12 03:47:50;;;;;;;16.50;9.25;;;;;;;12.35;88.65;100908.75;4940426;29;20055;-78
2022/05/12 03:50:19;;;;;;;19.55;9.77;;;;;;;12.23;88.66;100900.38;4939804;29;20043;-80
2022/05/12 03:52:47;;;;;;;13.75;8.95;;;;;;;12.23;89.05;100913.50;4939268;29;20107;-79
2022/05/12 03:55:17;;;;;;;16.58;9.77;;;;;;;12.28;89.06;100909.41;4939331;29;20059;-79
2022/05/12 03:57:45;;;;;;;12.95;8.38;;;;;;;12.26;88.63;100915.81;4938816;29;20061;-80
2022/05/12 04:00:15;;;;;;;15.27;8.90;;;;;;;12.22;88.61;100912.66;4938893;29;20333;-81
2022/05/12 04:02:42;;;;;;;14.25;9.90;;;;;;;12.22;88.86;100917.91;4941340;29;20079;-81
2022/05/12 04:05:09;;;;;;;13.13;8.88;;;;;;;12.33;88.09;100922.03;4939407;29;20051;-79
2022/05/12 04:07:40;;;;;;;11.50;8.60;;;;;;;12.43;87.68;100925.34;4937637;29;20398;-79
2022/05/12 04:10:08;;;;;;;12.43;8.82;;;;;;;12.54;87.34;100925.03;4938262;29;20048;-79
2022/05/12 04:12:36;;;;;;;14.25;8.52;;;;;;;12.69;86.27;100933.09;4939316;29;20131;-79
2022/05/12 04:15:03;;;;;;;13.95;8.23;;;;;;;12.90;85.31;100928.19;4938349;29;20062;-79
2022/05/12 04:17:31;;;;;;;15.35;8.32;;;;;;;13.04;84.59;100939.84;4941085;29;20062;-80
2022/05/12 04:20:02;;;;;;;9.80;7.90;;;;;;;13.25;84.05;100947.25;4941263;29;20051;-80
2022/05/12 04:22:31;;;;;;;15.43;8.75;;;;;;;13.17;83.54;100945.47;4943988;29;20060;-79
2022/05/12 04:24:58;;;;;;;11.25;7.68;;;;;;;13.26;83.03;100954.97;4946264;29;20059;-80
2022/05/12 04:27:24;;;;;;;11.00;7.65;;;;;;;13.40;82.93;100958.72;4940274;29;20064;-80
2022/05/12 04:29:53;;;;;;;14.10;8.27;;;;;;;13.38;83.00;100968.59;4938131;29;20134;-80
2022/05/12 04:32:19;;;;;;;11.18;7.85;;;;;;;13.50;82.44;100967.25;4939538;29;20075;-78
2022/05/12 04:37:33;;;;;;;11.07;8.00;;;;;;;13.70;81.01;100956.38;4936321;29;20106;-79
2022/05/12 04:40:05;;;;;;;15.73;8.02;;;;;;;13.65;81.51;100959.53;4935944;29;20530;-81
2022/05/12 04:42:31;;;;;;;9.60;7.30;;;;;;;13.85;81.06;100960.75;4935647;29;20056;-78
2022/05/12 04:45:03;;;;;;;12.23;7.97;;;;;;;13.70;81.22;100964.28;4935550;29;20055;-79
2022/05/12 04:47:30;;;;;;;11.35;7.53;;;;;;;13.99;80.77;100975.03;4935158;29;20142;-77
2022/05/12 04:49:58;;;;;;;11.63;7.85;;;;;;;14.06;79.16;100977.81;4935294;29;20047;-79
2022/05/12 04:52:25;;;;;;;12.30;7.43;;;;;;;14.29;78.07;100982.13;4938133;29;20111;-79
2022/05/12 04:54:54;;;;;;;14.50;7.88;;;;;;;14.46;77.13;100990.00;4938830;29;20107;-80
2022/05/12 04:57:20;;;;;;;13.45;8.75;;;;;;;14.47;76.90;100994.28;4938576;29;20134;-79
2022/05/12 04:59:47;;;;;;;14.73;7.32;;;;;;;13.96;78.59;100988.53;4935713;29;20063;-78
2022/05/12 05:02:15;;;;;;;12.18;7.70;;;;;;;13.90;79.51;100989.19;4935078;29;20066;-78
2022/05/12 05:04:42;;;;;;;18.17;8.23;;;;;;;13.92;79.78;100997.75;4935178;29;20138;-78
2022/05/12 05:07:10;;;;;;;9.38;7.22;;;;;;;14.52;77.81;100997.22;4936600;29;20086;-80
2022/05/12 05:09:37;;;;;;;11.93;7.97;;;;;;;14.86;76.13;101012.63;4937497;29;20079;-80
2022/05/12 05:12:04;;;;;;;10.15;7.45;;;;;;;14.84;76.40;101004.91;4936787;29;20110;-77
2022/05/12 05:14:31;;;;;;;15.77;6.88;;;;;;;15.03;75.54;101008.09;4935368;29;20142;-77
2022/05/12 05:16:59;;;;;;;12.38;7.25;;;;;;;15.36;74.97;101012.09;4933901;29;20066;-77
2022/05/12 05:19:27;;;;;;;13.43;7.03;;;;;;;16.33;70.73;101015.56;4932794;29;20086;-77
2022/05/12 05:21:53;;;;;;;12.05;6.68;;;;;;;16.40;70.86;101026.22;4935323;29;20139;-79
2022/05/12 05:24:20;;;;;;;16.55;7.10;;;;;;;16.55;70.13;101026.97;4937166;29;20134;-79
2022/05/12 05:26:47;;;;;;;14.82;6.50;;;;;;;16.74;69.35;101026.44;4936602;29;20301;-79
2022/05/12 05:29:13;;;;;;;11.07;5.93;;;;;;;17.27;66.81;101026.97;4936479;29;20055;-80
2022/05/12 05:31:41;;;;;;;10.80;6.35;;;;;;;17.78;64.41;101030.25;4938150;29;20055;-80
2022/05/12 05:34:09;;;;;;;12.38;6.05;;;;;;;18.28;62.06;101030.13;4936812;29;20052;-79
2022/05/12 05:36:39;;;;;;;12.32;5.93;;;;;;;18.18;61.11;101033.13;4935374;29;20058;-79
2022/05/12 05:39:06;;;;;;;15.05;5.75;;;;;;;19.49;57.13;101042.44;4935859;29;20047;-80
2022/05/12 05:41:33;;;;;;;11.68;5.13;;;;;;;19.45;56.49;101042.03;4935042;29;20430;-79
2022/05/12 05:44:00;;;;;;;10.25;4.90;;;;;;;20.04;54.38;101053.66;4934741;29;20059;-79
2022/05/12 05:46:26;;;;;;;9.45;5.43;;;;;;;20.36;53.56;101050.06;4934111;29;20157;-79
2022/05/12 05:48:56;;;;;;;13.60;5.13;;;;;;;20.17;53.61;101051.78;4933594;29;20059;-80
2022/05/12 05:54:13;;;;;;;9.07;4.57;;;;;;;21.49;49.80;101059.09;4938488;29;20354;-79
2022/05/12 05:56:40;;;;;;;9.82;4.78;;;;;;;21.27;51.00;101060.47;4938380;29;20059;-79
2022/05/12 05:59:07;;;;;;;11.18;4.88;;;;;;;20.17;50.98;101064.25;4937237;29;20131;-79
2022/05/12 06:01:33;;;;;;;10.15;4.15;;;;;;;20.36;51.14;101073.19;4936846;29;20137;-80
2022/05/12 06:04:00;;;;;;;9.52;4.13;;;;;;;21.38;48.12;101073.09;4936418;29;20100;-79
2022/05/12 06:06:27;;;;;;;12.15;5.18;;;;;;;20.72;48.86;101070.03;4935979;29;20487;-79
2022/05/12 06:08:53;;;;;;;13.48;5.60;;;;;;;21.28;48.54;101071.94;4933166;29;20139;-80
2022/05/12 06:11:21;;;;;;;14.07;5.88;;;;;;;21.66;47.47;101078.00;4935025;29;20130;-80
2022/05/12 06:13:48;;;;;;;9.38;5.40;;;;;;;21.56;48.19;101082.19;4936080;29;20056;-79
2022/05/12 06:16:15;;;;;;;12.32;6.07;;;;;;;21.62;47.26;101084.81;4936095;29;20138;-79
2022/05/12 06:18:42;;;;;;;10.23;5.43;;;;;;;21.57;47.38;101081.97;4936065;29;20147;-79
2022/05/12 06:21:12;;;;;;;8.43;4.72;;;;;;;20.98;47.43;101087.69;4936066;29;20054;-80
2022/05/12 06:23:39;;;;;;;14.43;5.13;;;;;;;20.54;48.57;101086.66;4936078;29;20056;-79
2022/05/12 06:26:13;;;;;;;9.85;5.05;;;;;;;21.41;47.58;101087.84;4935503;29;20070;-79
2022/05/12 06:28:45;;;;;;;10.13;6.03;;;;;;;21.20;47.87;101096.97;4936532;29;20127;-80
2022/05/12 06:31:12;;;;;;;17.75;7.57;;;;;;;21.10;47.83;101091.28;4936871;29;20090;-79
2022/05/12 06:33:41;;;;;;;12.35;7.07;;;;;;;21.26;47.91;101096.16;4937732;29;20147;-80
2022/05/12 06:36:08;;;;;;;14.23;7.43;;;;;;;20.85;48.59;101105.31;4937484;29;20055;-80
2022/05/12 06:38:36;;;;;;;13.73;8.13;;;;;;;22.32;45.81;101103.22;4935606;29;20051;-79
2022/05/12 06:41:04;;;;;;;14.32;7.88;;;;;;;23.00;44.03;101095.84;4933078;29;20575;-79
2022/05/12 06:43:30;;;;;;;14.13;7.72;;;;;;;22.37;46.03;101108.69;4936876;29;20070;-79
2022/05/12 06:45:59;;;;;;;16.80;8.07;;;;;;;22.24;46.24;101103.50;4938606;29;20058;-79
2022/05/12 06:48:26;;;;;;;13.30;8.18;;;;;;;22.85;46.38;101106.09;4937044;29;20127;-79
2022/05/12 06:50:53;;;;;;;13.93;7.60;;;;;;;22.95;44.09;101102.91;4939033;29;20130;-80
2022/05/12 06:53:20;;;;;;;13.98;6.95;;;;;;;22.70;43.91;101114.44;4938738;29;20052;-78
2022/05/12 06:55:47;;;;;;;11.07;6.75;;;;;;;22.13;44.96;101113.06;4937419;29;20063;-78
2022/05/12 06:58:17;;;;;;;10.43;6.22;;;;;;;22.07;45.59;101114.75;4937371;29;20142;-80
2022/05/12 07:00:43;;;;;;;12.60;7.28;;;;;;;22.24;45.62;101108.84;4939341;29;20054;-79
2022/05/12 07:03:12;;;;;;;14.05;7.20;;;;;;;22.92;45.28;101114.84;4940498;29;20062;-78
2022/05/12 07:05:40;;;;;;;10.75;7.15;;;;;;;22.15;45.40;101103.81;4943001;29;20055;-78
2022/05/12 07:08:08;;;;;;;15.27;6.88;;;;;;;22.15;46.43;101111.00;4942077;29;20106;-77
2022/05/12 07:10:36;;;;;;;11.13;7.20;;;;;;;22.47;45.40;101109.00;4939211;29;20127;-78
2022/05/12 07:13:04;;;;;;;11.52;6.85;;;;;;;22.50;44.35;101109.38;4942947;29;20059;-79
2022/05/12 07:15:30;;;;;;;11.73;6.93;;;;;;;22.50;44.96;101111.22;4941077;29;20048;-79
2022/05/12 07:17:59;;;;;;;15.18;7.78;;;;;;;22.10;47.78;101114.31;4940959;29;20535;-78
2022/05/12 07:28:41;;;;;;;11.45;7.63;;;;;;;22.40;45.57;101125.06;4937807;29;20086;-78
2022/05/12 07:31:09;;;;;;;9.45;6.22;;;;;;;22.92;42.61;101122.84;4939592;29;20051;-79
2022/05/12 07:33:39;;;;;;;9.48;5.38;;;;;;;22.91;43.23;101121.22;4939550;29;20062;-78
2022/05/12 07:36:10;;;;;;;9.40;6.03;;;;;;;23.10;42.41;101124.66;4939583;29;20143;-78
2022/05/12 07:38:37;;;;;;;9.60;6.18;;;;;;;23.18;42.17;101129.66;4938514;29;20308;-79
2022/05/12 07:41:07;;;;;;;8.07;5.78;;;;;;;23.52;42.57;101130.00;4941124;29;20064;-79
2022/05/12 07:43:34;;;;;;;8.85;5.60;;;;;;;24.02;40.59;101133.91;4940992;29;20055;-79
2022/05/12 07:46:00;;;;;;;9.93;4.85;;;;;;;23.47;40.50;101136.84;4941791;29;20083;-82
2022/05/12 07:48:27;;;;;;;7.30;4.72;;;;;;;23.78;39.92;101142.94;4943007;29;20079;-82
2022/05/12 07:50:54;;;;;;;7.20;5.07;;;;;;;22.91;42.81;101147.91;4940919;29;20059;-80
2022/05/12 07:53:21;;;;;;;9.85;5.88;;;;;;;22.60;42.83;101154.19;4941231;29;20390;-80
2022/05/12 07:55:49;;;;;;;7.10;5.03;;;;;;;21.12;44.71;101158.44;4940613;29;20052;-80
2022/05/12 07:58:16;;;;;;;8.27;5.38;;;;;;;19.92;48.49;101151.75;4940203;29;20063;-79
2022/05/12 08:00:43;;;;;;;9.45;5.32;;;;;;;20.88;46.55;101151.97;4943859;29;20055;-79
2022/05/12 08:03:10;;;;;;;11.63;5.45;;;;;;;21.60;45.42;101149.97;4941208;29;20460;-79
2022/05/12 08:05:37;;;;;;;9.73;5.50;;;;;;;22.71;43.11;101152.63;4941290;29;20065;-80
2022/05/12 08:08:06;;;;;;;12.93;6.75;;;;;;;22.15;44.94;101154.47;4941149;29;20479;-79
2022/05/12 08:10:35;;;;;;;10.70;5.80;;;;;;;21.19;45.52;101159.22;4942563;29;20396;-79
2022/05/12 08:13:01;;;;;;;13.10;5.72;;;;;;;20.68;46.87;101157.38;4941793;29;20051;-80
2022/05/12 08:15:28;;;;;;;7.78;5.03;;;;;;;22.07;44.02;101162.72;4940836;29;20050;-80
2022/05/12 08:17:56;;;;;;;9.55;5.15;;;;;;;22.62;41.89;101164.66;4942621;29;20062;-80
2022/05/12 08:20:24;;;;;;;13.73;5.13;;;;;;;22.75;42.66;101157.28;4940851;29;20267;-79
2022/05/12 08:22:51;;;;;;;10.93;5.20;;;;;;;21.80;44.90;101169.25;4941742;29;20390;-80
2022/05/12 08:25:18;;;;;;;10.93;4.85;;;;;;;21.74;44.11;101164.84;4942320;29;20069;-80
2022/05/12 08:27:47;;;;;;;8.45;4.88;;;;;;;21.81;44.60;101173.56;4941638;29;20051;-80
2022/05/12 08:30:15;;;;;;;9.30;5.43;;;;;;;21.59;45.84;101172.31;4942002;29;20051;-80
2022/05/12 08:32:42;;;;;;;7.55;5.05;;;;;;;21.91;45.19;101167.75;4943905;29;20079;-79
2022/05/12 08:35:09;;;;;;;8.20;5.25;;;;;;;22.49;42.98;101177.06;4945696;29;20055;-79
2022/05/12 08:37:36;;;;;;;9.93;5.10;;;;;;;23.03;41.50;101175.47;4945353;29;20134;-79
2022/05/12 08:40:04;;;;;;;8.48;4.95;;;;;;;23.83;40.90;101183.97;4945843;29;20115;-80
2022/05/12 08:42:35;;;;;;;10.45;4.85;;;;;;;24.55;39.19;101185.66;4946407;29;20641;-81
2022/05/12 08:45:06;;;;;;;11.52;5.50;;;;;;;24.45;39.30;101184.38;4945606;29;20078;-78
2022/05/12 08:47:37;;;;;;;8.65;5.40;;;;;;;23.77;39.86;101179.56;4952778;29;20103;-78
2022/05/12 08:50:05;;;;;;;10.07;5.53;;;;;;;23.40;40.72;101184.19;4959968;28;20093;-78
2022/05/12 08:52:39;;;;;;;8.32;5.35;;;;;;;23.63;40.39;101185.34;4949860;28;20114;-79
2022/05/12 08:55:14;;;;;;;12.25;5.95;;;;;;;22.83;42.09;101183.69;4944662;29;20054;-78
2022/05/12 08:57:46;;;;;;;9.02;5.55;;;;;;;21.69;44.68;101189.44;4946450;29;20051;-78
2022/05/12 09:00:17;;;;;;;10.40;5.22;;;;;;;20.77;47.21;101190.69;4950517;29;20051;-78
2022/05/12 09:02:52;;;;;;;13.55;5.88;;;;;;;21.42;47.07;101186.13;4956314;28;20055;-78
2022/05/12 09:05:24;;;;;;;7.03;5.80;;;;;;;22.55;44.08;101185.22;4966357;23;20079;-78
2022/05/12 09:07:59;;;;;;;9.68;5.70;;;;;;;23.13;42.61;101177.59;4945275;29;20155;-77
2022/05/12 09:10:39;;;;;;;9.68;5.85;;;;;;;22.20;44.37;101179.63;4952631;29;20083;-78
2022/05/12 09:13:14;;;;;;;10.90;5.75;;;;;;;22.04;43.10;101176.50;4940728;29;20059;-80
2022/05/12 09:15:49;;;;;;;10.65;5.10;;;;;;;22.83;41.42;101178.34;4957665;29;20094;-78
2022/05/12 09:18:18;;;;;;;8.98;5.20;;;;;;;22.02;43.38;101183.88;4941806;29;20058;-79
2022/05/12 09:20:46;;;;;;;6.90;5.00;;;;;;;22.41;42.66;101181.88;4939025;29;20102;-79
2022/05/12 09:23:12;;;;;;;9.32;4.85;;;;;;;21.27;44.24;101179.47;4941833;29;20079;-78
2022/05/12 09:25:41;;;;;;;6.35;4.63;;;;;;;20.88;46.07;101179.38;4936933;29;20080;-80
2022/05/12 09:28:27;;;;;;;12.43;5.60;;;;;;;20.96;47.02;101186.31;4938745;29;20066;-79
2022/05/12 09:30:59;;;;;;;9.27;5.03;;;;;;;20.90;46.35;101181.84;4941530;29;20040;-79
2022/05/12 09:33:31;;;;;;;10.30;4.90;;;;;;;21.10;46.66;101181.75;4938016;29;20058;-80
2022/05/12 09:36:01;;;;;;;13.15;4.35;;;;;;;22.08;44.07;101169.69;4936855;29;20039;-79
2022/05/12 09:38:29;;;;;;;6.40;4.32;;;;;;;22.69;40.78;101160.03;4933593;29;20473;-80
2022/05/12 09:40:57;;;;;;;6.20;4.70;;;;;;;22.18;40.49;101164.69;4935973;29;20112;-79
2022/05/12 09:43:31;;;;;;;9.07;4.40;;;;;;;22.44;41.78;101176.94;4930675;29;20079;-80
2022/05/12 09:46:06;;;;;;;7.90;4.40;;;;;;;21.55;41.92;101161.25;4938682;29;20058;-79
2022/05/12 09:48:37;;;;;;;9.90;4.50;;;;;;;20.62;42.93;101163.53;4933997;29;20076;-79
2022/05/12 09:51:21;;;;;;;10.07;4.25;;;;;;;20.56;43.97;101175.00;4936600;29;20178;-78
2022/05/12 09:53:48;;;;;;;7.50;4.20;;;;;;;20.61;44.48;101167.22;4935103;29;20044;-79
2022/05/12 09:56:29;;;;;;;6.20;4.15;;;;;;;20.67;44.70;101174.34;4934808;29;20221;-79
2022/05/12 09:59:07;;;;;;;6.65;4.20;;;;;;;20.09;46.61;101168.91;4934493;29;20570;-79
2022/05/12 10:01:36;;;;;;;7.93;4.32;;;;;;;20.47;45.82;101168.25;4936463;29;20062;-79
2022/05/12 10:09:55;;;;;;;5.93;4.13;;;;;;;21.64;42.59;101156.50;4926054;29;20067;-79
2022/05/12 10:12:25;;;;;;;6.53;4.13;;;;;;;21.64;41.16;101151.16;4921915;29;20052;-79
2022/05/12 10:14:57;;;;;;;8.10;4.03;;;;;;;21.62;40.83;101150.56;4925921;29;20056;-79
2022/05/12 10:17:30;;;;;;;5.68;3.95;;;;;;;21.46;39.92;101144.72;4930472;29;20051;-80
2022/05/12 10:20:02;;;;;;;11.00;3.80;;;;;;;21.41;39.77;101149.06;4929439;29;20135;-80
2022/05/12 10:22:33;;;;;;;6.97;3.63;;;;;;;21.23;40.08;101147.13;4928918;29;20127;-79
2022/05/12 10:25:17;;;;;;;6.90;3.88;;;;;;;21.43;40.75;101131.84;4937520;29;20415;-79
2022/05/12 10:27:53;;;;;;;7.55;4.10;;;;;;;21.33;41.06;101142.13;4938959;29;20056;-77
2022/05/12 10:30:39;;;;;;;8.02;4.10;;;;;;;20.69;41.18;101144.91;4942959;29;20087;-78
2022/05/12 10:33:24;;;;;;;8.40;3.75;;;;;;;21.18;40.72;101136.28;4944226;29;20067;-78
2022/05/12 10:36:00;;;;;;;8.07;3.83;;;;;;;21.24;39.50;101140.78;4940717;29;20083;-77
2022/05/12 10:38:37;;;;;;;9.40;3.92;;;;;;;21.58;39.43;101141.38;4932411;29;20081;-79
2022/05/12 10:41:13;;;;;;;9.75;4.00;;;;;;;22.44;38.77;101136.09;4931314;29;20055;-79
2022/05/12 10:43:55;;;;;;;6.22;3.58;;;;;;;22.35;38.18;101137.44;4926201;29;20071;-76
2022/05/12 10:46:24;;;;;;;;;;;;;;;22.06;38.37;101139.78;4928597;29;20085;-78
2022/05/12 10:48:58;;;;;;;7.72;3.90;;;;;;;22.15;39.80;101138.47;4939341;29;19990;-78
2022/05/12 10:51:35;;;;;;;7.88;4.22;;;;;;;22.46;38.89;101124.19;4934069;29;20074;-79
2022/05/12 10:54:20;;;;;;;8.82;4.07;;;;;;;22.48;38.29;101129.28;4922999;29;20094;-79
2022/05/12 10:56:55;;;;;;;7.47;3.80;;;;;;;21.98;38.02;101128.53;4921270;29;20143;-78
2022/05/12 10:59:38;;;;;;;7.05;3.50;;;;;;;22.08;38.28;101137.72;4919028;29;20494;-78
2022/05/12 11:02:12;;;;;;;8.60;3.72;;;;;;;22.65;37.37;101125.00;4919846;29;20056;-78
2022/05/12 11:04:45;;;;;;;6.63;3.60;;;;;;;22.49;36.54;101123.75;4925256;29;20495;-81
2022/05/12 11:07:16;;;;;;;8.10;3.20;;;;;;;22.57;36.81;101119.97;4922527;29;20134;-78
2022/05/12 11:09:48;;;;;;;7.10;4.60;;;;;;;22.21;36.44;101135.97;4919214;29;20142;-78
2022/05/12 11:12:22;;;;;;;8.40;3.77;;;;;;;22.22;35.73;101121.56;4921482;29;20422;-79
2022/05/12 11:14:55;;;;;;;7.28;4.00;;;;;;;21.88;37.75;101123.72;4922583;29;20306;-79
2022/05/12 11:17:33;;;;;;;8.07;3.85;;;;;;;21.82;36.76;101113.91;4928099;29;20470;-79
2022/05/12 11:20:13;;;;;;;6.40;3.88;;;;;;;22.36;36.50;101126.53;4932913;29;20541;-78
2022/05/12 11:22:47;;;;;;;8.98;3.67;;;;;;;22.40;36.61;101129.59;4940223;29;20087;-79
2022/05/12 11:25:18;;;;;;;6.15;3.10;;;;;;;21.76;35.38;101112.13;4936926;29;20138;-78
2022/05/12 11:29:41;;;;;;;5.30;3.30;;;;;;;22.35;36.69;101121.44;4937737;29;20429;-78
2022/05/12 11:30:46;;;;;;;5.85;3.20;;;;;;;22.74;36.65;101120.97;4937210;29;20051;-78
2022/05/12 11:33:24;;;;;;;8.60;3.55;;;;;;;22.66;35.59;101115.97;4923838;29;20051;-79
2022/05/12 11:35:54;;;;;;;8.27;4.10;;;;;;;22.81;35.33;101120.91;4943765;29;20324;-78
2022/05/12 11:38:45;;;;;;;6.75;3.83;;;;;;;22.97;34.15;101111.50;4947935;29;20043;-80
2022/05/12 11:41:38;;;;;;;4.90;3.13;;;;;;;23.59;35.06;101117.38;4934324;29;20130;-78
2022/05/12 11:44:24;;;;;;;7.28;3.92;;;;;;;23.02;34.75;101108.97;4932008;29;20062;-78
2022/05/12 11:47:11;;;;;;;7.75;3.42;;;;;;;23.06;35.52;101096.78;4942005;28;20059;-76
2022/05/12 11:50:00;;;;;;;12.07;4.65;;;;;;;22.32;35.80;101113.88;4942084;29;20051;-78
2022/05/12 11:52:41;;;;;;;6.10;3.80;;;;;;;22.46;36.28;101102.84;4935433;29;20540;-78
2022/05/12 11:55:22;;;;;;;8.40;4.13;;;;;;;23.01;35.99;101099.31;4932431;29;20295;-79
2022/05/12 11:58:01;;;;;;;9.50;4.13;;;;;;;22.77;35.19;101093.03;4939407;29;20126;-78
2022/05/12 12:00:57;;;;;;;6.18;4.00;;;;;;;23.07;35.34;101088.56;4941343;29;20111;-79
2022/05/12 12:03:51;;;;;;;9.13;4.05;;;;;;;23.18;35.76;101098.44;4925175;29;20095;-80
2022/05/12 12:06:52;;;;;;;9.38;3.80;;;;;;;23.45;36.21;101096.19;4924820;29;20115;-79